Time,TemperatureF,DewpointF,PressureIn,WindDirection,WindDirectionDegrees,WindSpeedMPH,WindSpeedGustMPH,Humidity,HourlyPrecipIn,Conditions,Clouds,dailyrainin,SoftwareType,DateUTC
2013-02-20 00:00:00,33.5,30.6,29.64,NNE,14,4.0,14.0,89,0.00,,,0.00,LWC V2.10 B1813,2013-02-20 05:00:00,
2013-02-20 00:05:00,33.2,30.0,29.64,WNW,290,3.0,11.0,88,0.00,,,0.00,LWC V2.10 B1813,2013-02-20 05:05:00,
2013-02-20 00:10:00,33.0,29.0,29.64,NE,53,3.0,10.0,85,0.00,,,0.00,LWC V2.10 B1813,2013-02-20 05:10:00,
2013-02-20 00:15:00,32.8,28.5,29.65,NW,315,3.0,15.0,84,0.00,,,0.00,LWC V2.10 B1813,2013-02-20 05:15:00,
2013-02-20 00:20:00,32.7,28.4,29.65,West,277,1.0,1.0,84,0.00,,,0.00,LWC V2.10 B1813,2013-02-20 05:20:00,
2013-02-20 00:25:00,32.5,27.9,29.65,NW,319,5.0,8.0,83,0.00,,,0.00,LWC V2.10 B1813,2013-02-20 05:25:00,
2013-02-20 00:30:00,32.5,27.6,29.66,North,0,5.0,12.0,82,0.00,,,0.00,LWC V2.10 B1813,2013-02-20 05:30:00,
2013-02-20 00:35:00,32.3,27.4,29.66,NNW,339,2.0,12.0,82,0.00,,,0.00,LWC V2.10 B1813,2013-02-20 05:35:00,
2013-02-20 00:40:00,32.2,27.0,29.66,NE,44,3.0,3.0,81,0.00,,,0.00,LWC V2.10 B1813,2013-02-20 05:40:00,
2013-02-20 00:45:00,32.2,26.7,29.66,West,264,0.0,5.0,80,0.00,,,0.00,LWC V2.10 B1813,2013-02-20 05:45:00,
2013-02-20 00:50:00,32.1,26.6,29.66,WSW,242,0.0,5.0,80,0.00,,,0.00,LWC V2.10 B1813,2013-02-20 05:50:00,
2013-02-20 00:55:00,32.1,26.3,29.66,South,171,6.0,6.0,79,0.00,,,0.00,LWC V2.10 B1813,2013-02-20 05:55:00,
2013-02-20 01:00:00,32.0,26.2,29.67,South,169,2.0,3.0,79,0.00,,,0.00,LWC V2.10 B1813,2013-02-20 06:00:00,
2013-02-20 01:05:00,31.9,25.8,29.66,WNW,286,1.0,5.0,78,0.00,,,0.00,LWC V2.10 B1813,2013-02-20 06:05:00,
2013-02-20 01:10:00,31.7,25.0,29.67,NNE,19,4.0,4.0,76,0.00,,,0.00,LWC V2.10 B1813,2013-02-20 06:10:00,
2013-02-20 01:15:00,31.6,24.9,29.67,NNE,30,3.0,6.0,76,0.00,,,0.00,LWC V2.10 B1813,2013-02-20 06:15:00,
2013-02-20 01:20:00,31.4,24.7,29.67,NW,306,3.0,9.0,76,0.00,,,0.00,LWC V2.10 B1813,2013-02-20 06:20:00,
2013-02-20 01:25:00,31.3,24.3,29.67,NNW,342,2.0,6.0,75,0.00,,,0.00,LWC V2.10 B1813,2013-02-20 06:25:00,
2013-02-20 01:30:00,31.3,24.3,29.68,South,175,11.0,11.0,75,0.00,,,0.00,LWC V2.10 B1813,2013-02-20 06:30:00,
2013-02-20 01:35:00,31.3,24.0,29.68,North,11,2.0,5.0,74,0.00,,,0.00,LWC V2.10 B1813,2013-02-20 06:35:00,
2013-02-20 01:40:00,31.2,23.9,29.68,East,93,2.0,7.0,74,0.00,,,0.00,LWC V2.10 B1813,2013-02-20 06:40:00,
2013-02-20 01:45:00,31.2,23.9,29.68,ENE,74,2.0,2.0,74,0.00,,,0.00,LWC V2.10 B1813,2013-02-20 06:45:00,
2013-02-20 01:50:00,31.1,24.1,29.68,NW,324,2.0,2.0,75,0.00,,,0.00,LWC V2.10 B1813,2013-02-20 06:50:00,
2013-02-20 01:55:00,31.0,24.0,29.68,West,271,0.0,2.0,75,0.00,,,0.00,LWC V2.10 B1813,2013-02-20 06:55:00,
2013-02-20 02:00:00,30.9,23.6,29.68,West,259,1.0,6.0,74,0.00,,,0.00,LWC V2.10 B1813,2013-02-20 07:00:00,
2013-02-20 02:05:00,30.9,23.6,29.68,NE,36,0.0,5.0,74,0.00,,,0.00,LWC V2.10 B1813,2013-02-20 07:05:00,
2013-02-20 02:10:00,30.8,23.5,29.68,WNW,302,1.0,9.0,74,0.00,,,0.00,LWC V2.10 B1813,2013-02-20 07:10:00,
2013-02-20 02:15:00,30.8,23.5,29.68,NNW,346,2.0,12.0,74,0.00,,,0.00,LWC V2.10 B1813,2013-02-20 07:15:00,
2013-02-20 02:20:00,30.7,23.4,29.68,WSW,241,4.0,5.0,74,0.00,,,0.00,LWC V2.10 B1813,2013-02-20 07:20:00,
2013-02-20 02:25:00,30.7,23.7,29.68,NW,319,2.0,6.0,75,0.00,,,0.00,LWC V2.10 B1813,2013-02-20 07:25:00,
2013-02-20 02:30:00,30.6,23.6,29.68,North,351,2.0,3.0,75,0.00,,,0.00,LWC V2.10 B1813,2013-02-20 07:30:00,
2013-02-20 02:35:00,30.5,23.9,29.68,NE,34,11.0,15.0,76,0.00,,,0.00,LWC V2.10 B1813,2013-02-20 07:35:00,
2013-02-20 02:40:00,30.4,24.1,29.68,NNW,331,1.0,4.0,77,0.00,,,0.00,LWC V2.10 B1813,2013-02-20 07:40:00,
2013-02-20 02:45:00,30.3,24.0,29.69,North,9,2.0,5.0,77,0.00,,,0.00,LWC V2.10 B1813,2013-02-20 07:45:00,
2013-02-20 02:50:00,30.2,23.9,29.69,WSW,250,3.0,13.0,77,0.00,,,0.00,LWC V2.10 B1813,2013-02-20 07:50:00,
2013-02-20 02:55:00,30.0,22.7,29.68,NNW,327,3.0,11.0,74,0.00,,,0.00,LWC V2.10 B1813,2013-02-20 07:55:00,
2013-02-20 03:00:00,29.8,22.5,29.69,West,281,2.0,9.0,74,0.00,,,0.00,LWC V2.10 B1813,2013-02-20 08:00:00,
2013-02-20 03:05:00,29.6,21.4,29.69,WNW,289,4.0,9.0,71,0.00,,,0.00,LWC V2.10 B1813,2013-02-20 08:05:00,
2013-02-20 03:10:00,29.3,21.4,29.69,WSW,238,4.0,4.0,72,0.00,,,0.00,LWC V2.10 B1813,2013-02-20 08:10:00,
2013-02-20 03:15:00,29.0,21.4,29.69,NW,306,0.0,2.0,73,0.00,,,0.00,LWC V2.10 B1813,2013-02-20 08:15:00,
2013-02-20 03:20:00,28.8,20.6,29.69,WSW,240,3.0,6.0,71,0.00,,,0.00,LWC V2.10 B1813,2013-02-20 08:20:00,
2013-02-20 03:25:00,28.6,20.7,29.69,NNE,30,5.0,12.0,72,0.00,,,0.00,LWC V2.10 B1813,2013-02-20 08:25:00,
2013-02-20 03:30:00,28.4,21.2,29.69,West,261,7.0,7.0,74,0.00,,,0.00,LWC V2.10 B1813,2013-02-20 08:30:00,
2013-02-20 03:35:00,28.3,20.8,29.69,NNE,17,7.0,7.0,73,0.00,,,0.00,LWC V2.10 B1813,2013-02-20 08:35:00,
2013-02-20 03:40:00,28.2,20.7,29.69,NNE,12,3.0,14.0,73,0.00,,,0.00,LWC V2.10 B1813,2013-02-20 08:40:00,
2013-02-20 03:45:00,28.1,20.9,29.69,NNE,22,7.0,11.0,74,0.00,,,0.00,LWC V2.10 B1813,2013-02-20 08:45:00,
2013-02-20 03:50:00,28.0,20.5,29.70,North,11,11.0,11.0,73,0.00,,,0.00,LWC V2.10 B1813,2013-02-20 08:50:00,
2013-02-20 03:55:00,27.9,20.4,29.69,North,0,2.0,15.0,73,0.00,,,0.00,LWC V2.10 B1813,2013-02-20 08:55:00,
2013-02-20 04:00:00,27.8,20.0,29.70,North,0,4.0,4.0,72,0.00,,,0.00,LWC V2.10 B1813,2013-02-20 09:00:00,
2013-02-20 04:05:00,27.7,19.5,29.70,NW,309,2.0,18.0,71,0.00,,,0.00,LWC V2.10 B1813,2013-02-20 09:05:00,
2013-02-20 04:10:00,27.7,19.5,29.70,NNW,339,2.0,3.0,71,0.00,,,0.00,LWC V2.10 B1813,2013-02-20 09:10:00,
2013-02-20 04:15:00,27.6,19.4,29.70,NNE,28,9.0,9.0,71,0.00,,,0.00,LWC V2.10 B1813,2013-02-20 09:15:00,
2013-02-20 04:20:00,27.5,19.7,29.70,North,349,2.0,6.0,72,0.00,,,0.00,LWC V2.10 B1813,2013-02-20 09:20:00,
2013-02-20 04:25:00,27.4,19.3,29.69,North,355,15.0,17.0,71,0.00,,,0.00,LWC V2.10 B1813,2013-02-20 09:25:00,
2013-02-20 04:30:00,27.3,19.2,29.70,SW,219,4.0,25.0,71,0.00,,,0.00,LWC V2.10 B1813,2013-02-20 09:30:00,
2013-02-20 04:35:00,27.2,19.1,29.69,NNE,24,8.0,8.0,71,0.00,,,0.00,LWC V2.10 B1813,2013-02-20 09:35:00,
2013-02-20 04:40:00,27.1,19.0,29.69,SE,143,1.0,3.0,71,0.00,,,0.00,LWC V2.10 B1813,2013-02-20 09:40:00,
2013-02-20 04:45:00,27.0,18.5,29.70,NW,325,0.0,6.0,70,0.00,,,0.00,LWC V2.10 B1813,2013-02-20 09:45:00,
2013-02-20 04:50:00,26.8,18.4,29.70,NNE,13,4.0,8.0,70,0.00,,,0.00,LWC V2.10 B1813,2013-02-20 09:50:00,
2013-02-20 04:55:00,26.7,18.3,29.70,North,355,8.0,8.0,70,0.00,,,0.00,LWC V2.10 B1813,2013-02-20 09:55:00,
2013-02-20 05:00:00,26.6,18.2,29.70,NE,38,4.0,4.0,70,0.00,,,0.00,LWC V2.10 B1813,2013-02-20 10:00:00,
2013-02-20 05:05:00,26.4,18.3,29.69,NNE,18,11.0,15.0,71,0.00,,,0.00,LWC V2.10 B1813,2013-02-20 10:05:00,
2013-02-20 05:10:00,26.3,18.2,29.70,SSE,156,3.0,11.0,71,0.00,,,0.00,LWC V2.10 B1813,2013-02-20 10:10:00,
2013-02-20 05:15:00,26.2,18.7,29.70,SW,224,5.0,6.0,73,0.00,,,0.00,LWC V2.10 B1813,2013-02-20 10:15:00,
2013-02-20 05:20:00,26.0,18.9,29.71,WNW,290,0.0,1.0,74,0.00,,,0.00,LWC V2.10 B1813,2013-02-20 10:20:00,
2013-02-20 05:25:00,25.8,18.7,29.71,NW,324,1.0,4.0,74,0.00,,,0.00,LWC V2.10 B1813,2013-02-20 10:25:00,
2013-02-20 05:30:00,25.7,18.9,29.70,NNW,340,0.0,6.0,75,0.00,,,0.00,LWC V2.10 B1813,2013-02-20 10:30:00,
2013-02-20 05:35:00,25.6,18.8,29.71,North,5,6.0,6.0,75,0.00,,,0.00,LWC V2.10 B1813,2013-02-20 10:35:00,
2013-02-20 05:40:00,25.6,18.8,29.71,South,179,5.0,8.0,75,0.00,,,0.00,LWC V2.10 B1813,2013-02-20 10:40:00,
2013-02-20 05:45:00,25.7,18.6,29.70,SW,215,2.0,4.0,74,0.00,,,0.00,LWC V2.10 B1813,2013-02-20 10:45:00,
2013-02-20 05:50:00,25.8,18.0,29.70,South,178,2.0,9.0,72,0.00,,,0.00,LWC V2.10 B1813,2013-02-20 10:50:00,
2013-02-20 05:55:00,25.9,18.5,29.70,NNW,327,2.0,7.0,73,0.00,,,0.00,LWC V2.10 B1813,2013-02-20 10:55:00,
2013-02-20 06:00:00,25.9,17.8,29.70,South,182,0.0,7.0,71,0.00,,,0.00,LWC V2.10 B1813,2013-02-20 11:00:00,
2013-02-20 06:05:00,25.9,17.8,29.70,ESE,113,0.0,2.0,71,0.00,,,0.00,LWC V2.10 B1813,2013-02-20 11:05:00,
2013-02-20 06:10:00,25.9,18.1,29.70,NNE,13,0.0,5.0,72,0.00,,,0.00,LWC V2.10 B1813,2013-02-20 11:10:00,
2013-02-20 06:15:00,25.8,17.7,29.70,North,355,3.0,11.0,71,0.00,,,0.00,LWC V2.10 B1813,2013-02-20 11:15:00,
2013-02-20 06:20:00,25.8,17.4,29.69,SE,124,1.0,3.0,70,0.00,,,0.00,LWC V2.10 B1813,2013-02-20 11:20:00,
2013-02-20 06:25:00,25.8,17.4,29.70,NE,50,3.0,5.0,70,0.00,,,0.00,LWC V2.10 B1813,2013-02-20 11:25:00,
2013-02-20 06:30:00,25.7,17.6,29.70,SW,236,2.0,8.0,71,0.00,,,0.00,LWC V2.10 B1813,2013-02-20 11:30:00,
2013-02-20 06:35:00,25.7,17.3,29.69,South,183,7.0,13.0,70,0.00,,,0.00,LWC V2.10 B1813,2013-02-20 11:35:00,
2013-02-20 06:40:00,25.6,17.2,29.71,SW,229,2.0,4.0,70,0.00,,,0.00,LWC V2.10 B1813,2013-02-20 11:40:00,
2013-02-20 06:45:00,25.5,17.1,29.71,SSW,199,3.0,6.0,70,0.00,,,0.00,LWC V2.10 B1813,2013-02-20 11:45:00,
2013-02-20 06:50:00,25.5,17.1,29.71,SW,221,9.0,14.0,70,0.00,,,0.00,LWC V2.10 B1813,2013-02-20 11:50:00,
2013-02-20 06:55:00,25.5,17.1,29.72,WSW,257,5.0,6.0,70,0.00,,,0.00,LWC V2.10 B1813,2013-02-20 11:55:00,
2013-02-20 07:00:00,25.6,17.2,29.71,NW,325,4.0,7.0,70,0.00,,,0.00,LWC V2.10 B1813,2013-02-20 12:00:00,
2013-02-20 07:05:00,25.5,17.1,29.72,West,279,0.0,9.0,70,0.00,,,0.00,LWC V2.10 B1813,2013-02-20 12:05:00,
2013-02-20 07:10:00,25.5,17.1,29.71,SW,224,5.0,5.0,70,0.00,,,0.00,LWC V2.10 B1813,2013-02-20 12:10:00,
2013-02-20 07:15:00,25.5,17.1,29.71,South,170,4.0,6.0,70,0.00,,,0.00,LWC V2.10 B1813,2013-02-20 12:15:00,
2013-02-20 07:20:00,25.5,17.1,29.72,SSW,196,4.0,6.0,70,0.00,,,0.00,LWC V2.10 B1813,2013-02-20 12:20:00,
2013-02-20 07:25:00,25.4,16.7,29.72,WNW,283,1.0,11.0,69,0.00,,,0.00,LWC V2.10 B1813,2013-02-20 12:25:00,
2013-02-20 07:30:00,25.4,16.7,29.72,South,185,2.0,6.0,69,0.00,,,0.00,LWC V2.10 B1813,2013-02-20 12:30:00,
2013-02-20 07:35:00,25.5,16.4,29.72,NE,45,4.0,5.0,68,0.00,,,0.00,LWC V2.10 B1813,2013-02-20 12:35:00,
2013-02-20 07:40:00,25.4,16.7,29.72,ENE,71,2.0,7.0,69,0.00,,,0.00,LWC V2.10 B1813,2013-02-20 12:40:00,
2013-02-20 07:45:00,25.3,16.2,29.72,SSW,207,0.0,3.0,68,0.00,,,0.00,LWC V2.10 B1813,2013-02-20 12:45:00,
2013-02-20 07:50:00,25.3,16.2,29.73,WSW,242,2.0,10.0,68,0.00,,,0.00,LWC V2.10 B1813,2013-02-20 12:50:00,
2013-02-20 07:55:00,25.2,15.8,29.73,South,186,4.0,8.0,67,0.00,,,0.00,LWC V2.10 B1813,2013-02-20 12:55:00,
2013-02-20 08:00:00,25.1,15.7,29.73,WSW,249,3.0,5.0,67,0.00,,,0.00,LWC V2.10 B1813,2013-02-20 13:00:00,
2013-02-20 08:05:00,25.0,15.6,29.73,South,174,5.0,5.0,67,0.00,,,0.00,LWC V2.10 B1813,2013-02-20 13:05:00,
2013-02-20 08:10:00,25.0,15.6,29.73,South,180,6.0,7.0,67,0.00,,,0.00,LWC V2.10 B1813,2013-02-20 13:10:00,
2013-02-20 08:15:00,24.9,15.5,29.74,WSW,252,3.0,7.0,67,0.00,,,0.00,LWC V2.10 B1813,2013-02-20 13:15:00,
2013-02-20 08:20:00,24.9,15.9,29.74,West,261,3.0,5.0,68,0.00,,,0.00,LWC V2.10 B1813,2013-02-20 13:20:00,
2013-02-20 08:25:00,24.9,16.5,29.74,West,276,1.0,17.0,70,0.00,,,0.00,LWC V2.10 B1813,2013-02-20 13:25:00,
2013-02-20 08:30:00,24.9,16.5,29.74,NW,319,3.0,6.0,70,0.00,,,0.00,LWC V2.10 B1813,2013-02-20 13:30:00,
2013-02-20 08:35:00,24.8,16.1,29.74,West,261,3.0,4.0,69,0.00,,,0.00,LWC V2.10 B1813,2013-02-20 13:35:00,
2013-02-20 08:40:00,24.8,16.1,29.74,SW,222,6.0,9.0,69,0.00,,,0.00,LWC V2.10 B1813,2013-02-20 13:40:00,
2013-02-20 08:45:00,24.8,15.8,29.74,West,261,2.0,6.0,68,0.00,,,0.00,LWC V2.10 B1813,2013-02-20 13:45:00,
2013-02-20 08:50:00,24.9,15.9,29.74,SW,225,5.0,7.0,68,0.00,,,0.00,LWC V2.10 B1813,2013-02-20 13:50:00,
2013-02-20 08:55:00,25.3,16.2,29.74,North,355,4.0,7.0,68,0.00,,,0.00,LWC V2.10 B1813,2013-02-20 13:55:00,
2013-02-20 09:00:00,25.6,16.2,29.73,WNW,299,1.0,5.0,67,0.00,,,0.00,LWC V2.10 B1813,2013-02-20 14:00:00,
2013-02-20 09:05:00,25.5,15.4,29.73,SE,128,6.0,12.0,65,0.00,,,0.00,LWC V2.10 B1813,2013-02-20 14:05:00,
2013-02-20 09:10:00,25.6,15.5,29.73,SW,225,3.0,7.0,65,0.00,,,0.00,LWC V2.10 B1813,2013-02-20 14:10:00,
2013-02-20 09:15:00,25.6,15.5,29.73,WSW,246,11.0,17.0,65,0.00,,,0.00,LWC V2.10 B1813,2013-02-20 14:15:00,
2013-02-20 09:20:00,25.5,15.4,29.73,SSW,212,2.0,3.0,65,0.00,,,0.00,LWC V2.10 B1813,2013-02-20 14:20:00,
2013-02-20 09:25:00,25.5,15.0,29.73,NW,323,0.0,9.0,64,0.00,,,0.00,LWC V2.10 B1813,2013-02-20 14:25:00,
2013-02-20 09:30:00,25.6,15.5,29.73,SW,218,2.0,3.0,65,0.00,,,0.00,LWC V2.10 B1813,2013-02-20 14:30:00,
2013-02-20 09:35:00,25.7,15.6,29.73,NW,311,0.0,2.0,65,0.00,,,0.00,LWC V2.10 B1813,2013-02-20 14:35:00,
2013-02-20 09:40:00,25.7,14.9,29.74,SSW,200,1.0,4.0,63,0.00,,,0.00,LWC V2.10 B1813,2013-02-20 14:40:00,
2013-02-20 09:45:00,25.7,14.9,29.74,NW,310,5.0,11.0,63,0.00,,,0.00,LWC V2.10 B1813,2013-02-20 14:45:00,
2013-02-20 09:50:00,25.9,15.4,29.73,SW,232,1.0,4.0,64,0.00,,,0.00,LWC V2.10 B1813,2013-02-20 14:50:00,
2013-02-20 09:55:00,25.9,14.3,29.73,SW,234,3.0,15.0,61,0.00,,,0.00,LWC V2.10 B1813,2013-02-20 14:55:00,
2013-02-20 10:00:00,25.8,14.2,29.74,ESE,112,0.0,6.0,61,0.00,,,0.00,LWC V2.10 B1813,2013-02-20 15:00:00,
2013-02-20 10:05:00,26.1,14.9,29.74,WNW,284,4.0,5.0,62,0.00,,,0.00,LWC V2.10 B1813,2013-02-20 15:05:00,
2013-02-20 10:10:00,26.4,15.5,29.73,North,5,3.0,7.0,63,0.00,,,0.00,LWC V2.10 B1813,2013-02-20 15:10:00,
2013-02-20 10:15:00,26.5,14.5,29.73,West,276,3.0,8.0,60,0.00,,,0.00,LWC V2.10 B1813,2013-02-20 15:15:00,
2013-02-20 10:20:00,27.1,14.7,29.73,NW,315,1.0,11.0,59,0.00,,,0.00,LWC V2.10 B1813,2013-02-20 15:20:00,
2013-02-20 10:25:00,27.4,15.0,29.74,WSW,254,3.0,8.0,59,0.00,,,0.00,LWC V2.10 B1813,2013-02-20 15:25:00,
2013-02-20 10:30:00,27.0,14.6,29.73,WNW,284,0.0,7.0,59,0.00,,,0.00,LWC V2.10 B1813,2013-02-20 15:30:00,
2013-02-20 10:35:00,26.9,14.5,29.73,West,275,9.0,11.0,59,0.00,,,0.00,LWC V2.10 B1813,2013-02-20 15:35:00,
2013-02-20 10:40:00,26.7,13.9,29.73,SSW,211,6.0,9.0,58,0.00,,,0.00,LWC V2.10 B1813,2013-02-20 15:40:00,
2013-02-20 10:45:00,26.7,13.1,29.73,SW,233,4.0,8.0,56,0.00,,,0.00,LWC V2.10 B1813,2013-02-20 15:45:00,
2013-02-20 10:50:00,26.7,13.1,29.73,SW,215,0.0,9.0,56,0.00,,,0.00,LWC V2.10 B1813,2013-02-20 15:50:00,
2013-02-20 10:55:00,27.6,14.4,29.73,NE,55,1.0,4.0,57,0.00,,,0.00,LWC V2.10 B1813,2013-02-20 15:55:00,
2013-02-20 11:00:00,28.0,13.5,29.73,West,279,3.0,6.0,54,0.00,,,0.00,LWC V2.10 B1813,2013-02-20 16:00:00,
2013-02-20 11:05:00,28.2,12.9,29.73,WSW,247,4.0,10.0,52,0.00,,,0.00,LWC V2.10 B1813,2013-02-20 16:05:00,
2013-02-20 11:10:00,28.5,13.1,29.73,NNW,333,3.0,9.0,52,0.00,,,0.00,LWC V2.10 B1813,2013-02-20 16:10:00,
2013-02-20 11:15:00,28.1,12.3,29.73,SW,225,3.0,11.0,51,0.00,,,0.00,LWC V2.10 B1813,2013-02-20 16:15:00,
2013-02-20 11:20:00,28.0,12.2,29.73,WSW,255,0.0,7.0,51,0.00,,,0.00,LWC V2.10 B1813,2013-02-20 16:20:00,
2013-02-20 11:25:00,28.5,13.1,29.73,WSW,254,5.0,7.0,52,0.00,,,0.00,LWC V2.10 B1813,2013-02-20 16:25:00,
2013-02-20 11:30:00,28.4,12.2,29.74,SW,234,3.0,9.0,50,0.00,,,0.00,LWC V2.10 B1813,2013-02-20 16:30:00,
2013-02-20 11:35:00,28.6,11.4,29.74,North,0,1.0,10.0,48,0.00,,,0.00,LWC V2.10 B1813,2013-02-20 16:35:00,
2013-02-20 11:40:00,29.1,11.9,29.73,South,184,7.0,9.0,48,0.00,,,0.00,LWC V2.10 B1813,2013-02-20 16:40:00,
2013-02-20 11:45:00,29.1,11.9,29.73,WSW,240,3.0,7.0,48,0.00,,,0.00,LWC V2.10 B1813,2013-02-20 16:45:00,
2013-02-20 11:50:00,29.0,9.8,29.72,SW,215,9.0,11.0,44,0.00,,,0.00,LWC V2.10 B1813,2013-02-20 16:50:00,
2013-02-20 11:55:00,28.8,10.2,29.72,WSW,258,2.0,13.0,45,0.00,,,0.00,LWC V2.10 B1813,2013-02-20 16:55:00,
2013-02-20 12:00:00,28.9,10.8,29.72,SSW,201,7.0,14.0,46,0.00,,,0.00,LWC V2.10 B1813,2013-02-20 17:00:00,
2013-02-20 12:05:00,28.5,10.4,29.72,ESE,109,2.0,12.0,46,0.00,,,0.00,LWC V2.10 B1813,2013-02-20 17:05:00,
2013-02-20 12:10:00,28.1,9.5,29.72,West,265,8.0,8.0,45,0.00,,,0.00,LWC V2.10 B1813,2013-02-20 17:10:00,
2013-02-20 12:15:00,28.1,10.0,29.72,WNW,286,3.0,6.0,46,0.00,,,0.00,LWC V2.10 B1813,2013-02-20 17:15:00,
2013-02-20 12:20:00,28.5,10.9,29.72,West,259,3.0,6.0,47,0.00,,,0.00,LWC V2.10 B1813,2013-02-20 17:20:00,
2013-02-20 12:25:00,28.5,9.9,29.72,SSW,199,3.0,5.0,45,0.00,,,0.00,LWC V2.10 B1813,2013-02-20 17:25:00,
2013-02-20 12:30:00,27.8,9.3,29.73,WNW,296,5.0,11.0,45,0.00,,,0.00,LWC V2.10 B1813,2013-02-20 17:30:00,
2013-02-20 12:35:00,27.7,10.1,29.73,West,281,1.0,8.0,47,0.00,,,0.00,LWC V2.10 B1813,2013-02-20 17:35:00,
2013-02-20 12:40:00,27.4,9.9,29.73,WSW,245,4.0,9.0,47,0.00,,,0.00,LWC V2.10 B1813,2013-02-20 17:40:00,
2013-02-20 12:45:00,27.2,10.1,29.73,ENE,67,3.0,9.0,48,0.00,,,0.00,LWC V2.10 B1813,2013-02-20 17:45:00,
2013-02-20 12:50:00,27.1,10.0,29.73,WSW,253,3.0,7.0,48,0.00,,,0.00,LWC V2.10 B1813,2013-02-20 17:50:00,
2013-02-20 12:55:00,26.9,9.9,29.73,SW,229,3.0,5.0,48,0.00,,,0.00,LWC V2.10 B1813,2013-02-20 17:55:00,
2013-02-20 13:00:00,27.3,10.2,29.72,SW,221,5.0,5.0,48,0.00,,,0.00,LWC V2.10 B1813,2013-02-20 18:00:00,
2013-02-20 13:05:00,27.1,9.6,29.73,ENE,71,1.0,14.0,47,0.00,,,0.00,LWC V2.10 B1813,2013-02-20 18:05:00,
2013-02-20 13:10:00,27.0,10.0,29.73,WNW,286,0.0,3.0,48,0.00,,,0.00,LWC V2.10 B1813,2013-02-20 18:10:00,
2013-02-20 13:15:00,27.3,10.7,29.73,SSW,208,2.0,2.0,49,0.00,,,0.00,LWC V2.10 B1813,2013-02-20 18:15:00,
2013-02-20 13:20:00,27.2,8.7,29.73,ENE,59,1.0,4.0,45,0.00,,,0.00,LWC V2.10 B1813,2013-02-20 18:20:00,
2013-02-20 13:25:00,27.1,8.6,29.73,ESE,109,3.0,9.0,45,0.00,,,0.00,LWC V2.10 B1813,2013-02-20 18:25:00,
2013-02-20 13:30:00,27.1,9.6,29.72,South,172,3.0,4.0,47,0.00,,,0.00,LWC V2.10 B1813,2013-02-20 18:30:00,
2013-02-20 13:35:00,27.3,9.3,29.72,NNW,338,2.0,10.0,46,0.00,,,0.00,LWC V2.10 B1813,2013-02-20 18:35:00,
2013-02-20 13:40:00,27.3,10.2,29.72,WSW,248,1.0,5.0,48,0.00,,,0.00,LWC V2.10 B1813,2013-02-20 18:40:00,
2013-02-20 13:45:00,27.4,9.9,29.72,NNE,13,2.0,6.0,47,0.00,,,0.00,LWC V2.10 B1813,2013-02-20 18:45:00,
2013-02-20 13:50:00,27.3,9.3,29.73,NNE,26,4.0,4.0,46,0.00,,,0.00,LWC V2.10 B1813,2013-02-20 18:50:00,
2013-02-20 13:55:00,27.2,9.7,29.73,SW,233,0.0,15.0,47,0.00,,,0.00,LWC V2.10 B1813,2013-02-20 18:55:00,
2013-02-20 14:00:00,27.3,10.2,29.73,ENE,57,0.0,5.0,48,0.00,,,0.00,LWC V2.10 B1813,2013-02-20 19:00:00,
2013-02-20 14:05:00,27.2,10.6,29.73,ENE,71,3.0,5.0,49,0.00,,,0.00,LWC V2.10 B1813,2013-02-20 19:05:00,
2013-02-20 14:10:00,27.4,10.8,29.73,SSW,211,1.0,7.0,49,0.00,,,0.00,LWC V2.10 B1813,2013-02-20 19:10:00,
2013-02-20 14:15:00,26.9,9.9,29.73,South,186,0.0,3.0,48,0.00,,,0.00,LWC V2.10 B1813,2013-02-20 19:15:00,
2013-02-20 14:20:00,27.0,9.5,29.73,NW,310,2.0,8.0,47,0.00,,,0.00,LWC V2.10 B1813,2013-02-20 19:20:00,
2013-02-20 14:25:00,26.9,9.9,29.73,SW,214,0.0,2.0,48,0.00,,,0.00,LWC V2.10 B1813,2013-02-20 19:25:00,
2013-02-20 14:30:00,26.9,8.9,29.74,North,9,2.0,14.0,46,0.00,,,0.00,LWC V2.10 B1813,2013-02-20 19:30:00,
2013-02-20 14:35:00,26.8,10.2,29.74,West,276,1.0,4.0,49,0.00,,,0.00,LWC V2.10 B1813,2013-02-20 19:35:00,
2013-02-20 14:40:00,27.0,9.5,29.74,ESE,111,1.0,3.0,47,0.00,,,0.00,LWC V2.10 B1813,2013-02-20 19:40:00,
2013-02-20 14:45:00,26.7,9.2,29.74,WSW,240,2.0,10.0,47,0.00,,,0.00,LWC V2.10 B1813,2013-02-20 19:45:00,
2013-02-20 14:50:00,26.6,9.6,29.75,SSW,196,7.0,7.0,48,0.00,,,0.00,LWC V2.10 B1813,2013-02-20 19:50:00,
2013-02-20 14:55:00,26.3,9.8,29.75,WSW,258,4.0,5.0,49,0.00,,,0.00,LWC V2.10 B1813,2013-02-20 19:55:00,
2013-02-20 15:00:00,26.2,9.7,29.76,North,0,3.0,6.0,49,0.00,,,0.00,LWC V2.10 B1813,2013-02-20 20:00:00,
2013-02-20 15:05:00,26.2,9.7,29.75,North,0,5.0,19.0,49,0.00,,,0.00,LWC V2.10 B1813,2013-02-20 20:05:00,
2013-02-20 15:10:00,26.2,9.7,29.75,North,9,7.0,7.0,49,0.00,,,0.00,LWC V2.10 B1813,2013-02-20 20:10:00,
2013-02-20 15:15:00,26.2,10.1,29.75,WNW,294,5.0,5.0,50,0.00,,,0.00,LWC V2.10 B1813,2013-02-20 20:15:00,
2013-02-20 15:20:00,26.2,10.1,29.76,WSW,256,6.0,6.0,50,0.00,,,0.00,LWC V2.10 B1813,2013-02-20 20:20:00,
2013-02-20 15:25:00,26.1,10.9,29.76,SW,219,6.0,7.0,52,0.00,,,0.00,LWC V2.10 B1813,2013-02-20 20:25:00,
2013-02-20 15:30:00,26.1,10.5,29.76,West,268,4.0,9.0,51,0.00,,,0.00,LWC V2.10 B1813,2013-02-20 20:30:00,
2013-02-20 15:35:00,26.2,9.7,29.76,NW,321,0.0,0.0,49,0.00,,,0.00,LWC V2.10 B1813,2013-02-20 20:35:00,
2013-02-20 15:40:00,25.9,9.8,29.77,NNE,30,2.0,7.0,50,0.00,,,0.00,LWC V2.10 B1813,2013-02-20 20:40:00,
2013-02-20 15:45:00,26.0,10.4,29.76,NE,34,0.0,7.0,51,0.00,,,0.00,LWC V2.10 B1813,2013-02-20 20:45:00,
2013-02-20 15:50:00,25.8,10.6,29.77,SSW,213,3.0,3.0,52,0.00,,,0.00,LWC V2.10 B1813,2013-02-20 20:50:00,
2013-02-20 15:55:00,25.7,10.1,29.77,SSE,163,0.0,3.0,51,0.00,,,0.00,LWC V2.10 B1813,2013-02-20 20:55:00,
2013-02-20 16:00:00,25.6,10.4,29.76,NNW,336,2.0,5.0,52,0.00,,,0.00,LWC V2.10 B1813,2013-02-20 21:00:00,
2013-02-20 16:05:00,25.6,10.9,29.77,SSE,167,3.0,3.0,53,0.00,,,0.00,LWC V2.10 B1813,2013-02-20 21:05:00,
2013-02-20 16:10:00,25.7,11.0,29.76,NW,313,0.0,6.0,53,0.00,,,0.00,LWC V2.10 B1813,2013-02-20 21:10:00,
2013-02-20 16:15:00,25.8,10.6,29.77,West,268,3.0,11.0,52,0.00,,,0.00,LWC V2.10 B1813,2013-02-20 21:15:00,
2013-02-20 16:20:00,25.7,10.1,29.77,SSE,150,0.0,4.0,51,0.00,,,0.00,LWC V2.10 B1813,2013-02-20 21:20:00,
2013-02-20 16:25:00,25.7,11.0,29.77,NNW,333,8.0,8.0,53,0.00,,,0.00,LWC V2.10 B1813,2013-02-20 21:25:00,
2013-02-20 16:30:00,25.6,10.4,29.78,West,263,1.0,6.0,52,0.00,,,0.00,LWC V2.10 B1813,2013-02-20 21:30:00,
2013-02-20 16:35:00,25.5,10.4,29.78,West,271,6.0,19.0,52,0.00,,,0.00,LWC V2.10 B1813,2013-02-20 21:35:00,
2013-02-20 16:40:00,25.3,10.6,29.78,West,279,2.0,7.0,53,0.00,,,0.00,LWC V2.10 B1813,2013-02-20 21:40:00,
2013-02-20 16:45:00,25.1,10.4,29.78,WNW,302,1.0,3.0,53,0.00,,,0.00,LWC V2.10 B1813,2013-02-20 21:45:00,
2013-02-20 16:50:00,25.1,10.4,29.78,South,175,13.0,13.0,53,0.00,,,0.00,LWC V2.10 B1813,2013-02-20 21:50:00,
2013-02-20 16:55:00,25.0,10.7,29.78,SW,229,2.0,9.0,54,0.00,,,0.00,LWC V2.10 B1813,2013-02-20 21:55:00,
2013-02-20 17:00:00,24.9,10.6,29.78,WNW,283,3.0,6.0,54,0.00,,,0.00,LWC V2.10 B1813,2013-02-20 22:00:00,
2013-02-20 17:05:00,24.8,10.5,29.78,North,355,2.0,8.0,54,0.00,,,0.00,LWC V2.10 B1813,2013-02-20 22:05:00,
2013-02-20 17:10:00,24.7,10.5,29.78,SE,144,2.0,8.0,54,0.00,,,0.00,LWC V2.10 B1813,2013-02-20 22:10:00,
2013-02-20 17:15:00,24.5,11.1,29.79,SW,225,4.0,7.0,56,0.00,,,0.00,LWC V2.10 B1813,2013-02-20 22:15:00,
2013-02-20 17:21:00,24.5,11.1,29.78,NW,311,7.0,8.0,56,0.00,,,0.00,LWC V2.10 B1813,2013-02-20 22:21:00,
2013-02-20 17:26:00,24.4,11.0,29.79,NW,309,3.0,10.0,56,0.00,,,0.00,LWC V2.10 B1813,2013-02-20 22:26:00,
2013-02-20 17:31:00,24.3,11.3,29.79,NE,38,4.0,7.0,57,0.00,,,0.00,LWC V2.10 B1813,2013-02-20 22:31:00,
2013-02-20 17:36:00,24.2,10.8,29.80,East,84,3.0,7.0,56,0.00,,,0.00,LWC V2.10 B1813,2013-02-20 22:36:00,
2013-02-20 17:41:00,24.2,11.2,29.80,SE,124,3.0,12.0,57,0.00,,,0.00,LWC V2.10 B1813,2013-02-20 22:41:00,
2013-02-20 17:46:00,24.1,11.5,29.81,WSW,240,4.0,7.0,58,0.00,,,0.00,LWC V2.10 B1813,2013-02-20 22:46:00,
2013-02-20 17:51:00,24.0,11.8,29.81,WSW,248,1.0,7.0,59,0.00,,,0.00,LWC V2.10 B1813,2013-02-20 22:51:00,
2013-02-20 17:56:00,23.9,11.7,29.82,NNW,335,1.0,9.0,59,0.00,,,0.00,LWC V2.10 B1813,2013-02-20 22:56:00,
2013-02-20 18:01:00,23.9,12.1,29.81,South,178,3.0,4.0,60,0.00,,,0.00,LWC V2.10 B1813,2013-02-20 23:01:00,
2013-02-20 18:06:00,23.9,11.7,29.82,NNE,15,5.0,8.0,59,0.00,,,0.00,LWC V2.10 B1813,2013-02-20 23:06:00,
2013-02-20 18:11:00,23.8,11.6,29.81,SSE,161,0.0,4.0,59,0.00,,,0.00,LWC V2.10 B1813,2013-02-20 23:11:00,
2013-02-20 18:16:00,23.8,12.0,29.82,SW,225,3.0,8.0,60,0.00,,,0.00,LWC V2.10 B1813,2013-02-20 23:16:00,
2013-02-20 18:21:00,23.8,12.0,29.82,SSW,201,0.0,7.0,60,0.00,,,0.00,LWC V2.10 B1813,2013-02-20 23:21:00,
2013-02-20 18:26:00,23.7,11.9,29.82,NNW,336,2.0,5.0,60,0.00,,,0.00,LWC V2.10 B1813,2013-02-20 23:26:00,
2013-02-20 18:31:00,23.8,12.0,29.82,NNE,22,1.0,8.0,60,0.00,,,0.00,LWC V2.10 B1813,2013-02-20 23:31:00,
2013-02-20 18:36:00,23.8,12.0,29.83,WSW,246,2.0,2.0,60,0.00,,,0.00,LWC V2.10 B1813,2013-02-20 23:36:00,
2013-02-20 18:41:00,23.7,12.6,29.83,NNE,19,3.0,3.0,62,0.00,,,0.00,LWC V2.10 B1813,2013-02-20 23:41:00,
2013-02-20 18:46:00,23.7,12.2,29.83,NW,323,2.0,6.0,61,0.00,,,0.00,LWC V2.10 B1813,2013-02-20 23:46:00,
2013-02-20 18:51:00,23.7,12.6,29.83,South,180,1.0,3.0,62,0.00,,,0.00,LWC V2.10 B1813,2013-02-20 23:51:00,
2013-02-20 18:56:00,23.7,12.2,29.83,West,281,3.0,7.0,61,0.00,,,0.00,LWC V2.10 B1813,2013-02-20 23:56:00,
2013-02-20 19:01:00,23.6,12.5,29.84,West,273,4.0,7.0,62,0.00,,,0.00,LWC V2.10 B1813,2013-02-21 00:01:00,
2013-02-20 19:06:00,23.5,12.4,29.84,South,182,0.0,5.0,62,0.00,,,0.00,LWC V2.10 B1813,2013-02-21 00:06:00,
2013-02-20 19:11:00,23.5,12.1,29.84,West,271,4.0,6.0,61,0.00,,,0.00,LWC V2.10 B1813,2013-02-21 00:11:00,
2013-02-20 19:16:00,23.5,12.4,29.84,NNW,340,9.0,9.0,62,0.00,,,0.00,LWC V2.10 B1813,2013-02-21 00:16:00,
2013-02-20 19:21:00,23.5,12.4,29.84,SSE,149,1.0,4.0,62,0.00,,,0.00,LWC V2.10 B1813,2013-02-21 00:21:00,
2013-02-20 19:26:00,23.5,12.4,29.84,West,264,2.0,7.0,62,0.00,,,0.00,LWC V2.10 B1813,2013-02-21 00:26:00,
2013-02-20 19:31:00,23.5,12.4,29.84,South,178,0.0,3.0,62,0.00,,,0.00,LWC V2.10 B1813,2013-02-21 00:31:00,
2013-02-20 19:36:00,23.4,12.3,29.83,North,5,6.0,8.0,62,0.00,,,0.00,LWC V2.10 B1813,2013-02-21 00:36:00,
2013-02-20 19:41:00,23.4,12.7,29.83,WSW,248,1.0,3.0,63,0.00,,,0.00,LWC V2.10 B1813,2013-02-21 00:41:00,
2013-02-20 19:46:00,23.2,12.5,29.83,SSW,209,6.0,6.0,63,0.00,,,0.00,LWC V2.10 B1813,2013-02-21 00:46:00,
2013-02-20 19:51:00,23.2,12.5,29.84,West,269,4.0,6.0,63,0.00,,,0.00,LWC V2.10 B1813,2013-02-21 00:51:00,
2013-02-20 19:56:00,23.1,12.8,29.83,South,173,5.0,6.0,64,0.00,,,0.00,LWC V2.10 B1813,2013-02-21 00:56:00,
2013-02-20 20:01:00,23.0,12.7,29.84,NW,308,5.0,8.0,64,0.00,,,0.00,LWC V2.10 B1813,2013-02-21 01:01:00,
2013-02-20 20:06:00,23.0,12.7,29.83,WSW,243,5.0,6.0,64,0.00,,,0.00,LWC V2.10 B1813,2013-02-21 01:06:00,
2013-02-20 20:11:00,23.0,13.0,29.84,WSW,246,0.0,4.0,65,0.00,,,0.00,LWC V2.10 B1813,2013-02-21 01:11:00,
2013-02-20 20:16:00,22.9,13.3,29.83,SSW,205,9.0,11.0,66,0.00,,,0.00,LWC V2.10 B1813,2013-02-21 01:16:00,
2013-02-20 20:21:00,22.9,13.3,29.84,SSW,205,5.0,6.0,66,0.00,,,0.00,LWC V2.10 B1813,2013-02-21 01:21:00,
2013-02-20 20:26:00,22.9,13.3,29.84,NE,34,4.0,7.0,66,0.00,,,0.00,LWC V2.10 B1813,2013-02-21 01:26:00,
2013-02-20 20:31:00,22.9,13.3,29.84,WNW,296,1.0,4.0,66,0.00,,,0.00,LWC V2.10 B1813,2013-02-21 01:31:00,
2013-02-20 20:36:00,23.0,13.4,29.84,WNW,286,2.0,2.0,66,0.00,,,0.00,LWC V2.10 B1813,2013-02-21 01:36:00,
2013-02-20 20:41:00,23.0,13.0,29.84,North,355,6.0,7.0,65,0.00,,,0.00,LWC V2.10 B1813,2013-02-21 01:41:00,
2013-02-20 20:46:00,23.0,13.4,29.85,West,263,3.0,6.0,66,0.00,,,0.00,LWC V2.10 B1813,2013-02-21 01:46:00,
2013-02-20 20:51:00,23.0,13.4,29.83,SSW,205,3.0,11.0,66,0.00,,,0.00,LWC V2.10 B1813,2013-02-21 01:51:00,
2013-02-20 20:56:00,23.1,13.1,29.84,North,5,3.0,6.0,65,0.00,,,0.00,LWC V2.10 B1813,2013-02-21 01:56:00,
2013-02-20 21:01:00,23.1,13.5,29.84,NNW,345,0.0,2.0,66,0.00,,,0.00,LWC V2.10 B1813,2013-02-21 02:01:00,
2013-02-20 21:06:00,23.1,13.5,29.84,WNW,296,1.0,4.0,66,0.00,,,0.00,LWC V2.10 B1813,2013-02-21 02:06:00,
2013-02-20 21:11:00,23.0,13.4,29.84,North,0,9.0,15.0,66,0.00,,,0.00,LWC V2.10 B1813,2013-02-21 02:11:00,
2013-02-20 21:16:00,23.0,13.7,29.84,SE,136,4.0,4.0,67,0.00,,,0.00,LWC V2.10 B1813,2013-02-21 02:16:00,
2013-02-20 21:21:00,23.1,13.5,29.85,SW,221,2.0,8.0,66,0.00,,,0.00,LWC V2.10 B1813,2013-02-21 02:21:00,
2013-02-20 21:26:00,23.1,13.8,29.84,West,269,3.0,13.0,67,0.00,,,0.00,LWC V2.10 B1813,2013-02-21 02:26:00,
2013-02-20 21:31:00,23.1,13.8,29.84,WNW,286,5.0,10.0,67,0.00,,,0.00,LWC V2.10 B1813,2013-02-21 02:31:00,
2013-02-20 21:36:00,23.2,13.9,29.84,WNW,284,4.0,12.0,67,0.00,,,0.00,LWC V2.10 B1813,2013-02-21 02:36:00,
2013-02-20 21:41:00,23.2,13.9,29.85,NW,305,3.0,7.0,67,0.00,,,0.00,LWC V2.10 B1813,2013-02-21 02:41:00,
2013-02-20 21:46:00,23.2,13.9,29.84,West,263,3.0,14.0,67,0.00,,,0.00,LWC V2.10 B1813,2013-02-21 02:46:00,
2013-02-20 21:51:00,23.3,14.0,29.85,NW,317,7.0,13.0,67,0.00,,,0.00,LWC V2.10 B1813,2013-02-21 02:51:00,
2013-02-20 21:56:00,23.3,14.3,29.85,SSE,148,1.0,8.0,68,0.00,,,0.00,LWC V2.10 B1813,2013-02-21 02:56:00,
2013-02-20 22:01:00,23.3,14.3,29.86,WSW,241,4.0,4.0,68,0.00,,,0.00,LWC V2.10 B1813,2013-02-21 03:01:00,
2013-02-20 22:06:00,23.3,14.7,29.86,WSW,256,2.0,8.0,69,0.00,,,0.00,LWC V2.10 B1813,2013-02-21 03:06:00,
2013-02-20 22:11:00,23.3,14.7,29.86,WSW,243,6.0,7.0,69,0.00,,,0.00,LWC V2.10 B1813,2013-02-21 03:11:00,
2013-02-20 22:16:00,23.4,14.8,29.87,WNW,292,5.0,8.0,69,0.00,,,0.00,LWC V2.10 B1813,2013-02-21 03:16:00,
2013-02-20 22:21:00,23.4,14.8,29.87,West,278,2.0,8.0,69,0.00,,,0.00,LWC V2.10 B1813,2013-02-21 03:21:00,
2013-02-20 22:26:00,23.5,14.9,29.86,West,281,5.0,14.0,69,0.00,,,0.00,LWC V2.10 B1813,2013-02-21 03:26:00,
2013-02-20 22:31:00,23.5,14.9,29.87,WNW,299,4.0,5.0,69,0.00,,,0.00,LWC V2.10 B1813,2013-02-21 03:31:00,
2013-02-20 22:36:00,23.5,14.9,29.87,NW,320,2.0,5.0,69,0.00,,,0.00,LWC V2.10 B1813,2013-02-21 03:36:00,
2013-02-20 22:41:00,23.5,14.9,29.87,NNW,345,1.0,6.0,69,0.00,,,0.00,LWC V2.10 B1813,2013-02-21 03:41:00,
2013-02-20 22:46:00,23.5,14.9,29.87,WNW,287,1.0,11.0,69,0.00,,,0.00,LWC V2.10 B1813,2013-02-21 03:46:00,
2013-02-20 22:51:00,23.5,14.9,29.87,West,277,3.0,10.0,69,0.00,,,0.00,LWC V2.10 B1813,2013-02-21 03:51:00,
2013-02-20 22:56:00,23.5,14.9,29.86,West,259,4.0,8.0,69,0.00,,,0.00,LWC V2.10 B1813,2013-02-21 03:56:00,
2013-02-20 22:57:00,23.5,14.9,29.86,WSW,246,3.0,8.0,69,0.00,,,0.00,LWC V2.10 B1813,2013-02-21 03:57:00,
2013-02-20 23:02:00,23.5,14.9,29.86,West,279,3.0,7.0,69,0.00,,,0.00,LWC V2.10 B1813,2013-02-21 04:02:00,
2013-02-20 23:07:00,23.5,14.5,29.85,WNW,296,6.0,15.0,68,0.00,,,0.00,LWC V2.10 B1813,2013-02-21 04:07:00,
2013-02-20 23:12:00,23.5,14.9,29.85,WNW,302,1.0,6.0,69,0.00,,,0.00,LWC V2.10 B1813,2013-02-21 04:12:00,
2013-02-20 23:17:00,23.5,14.5,29.85,WNW,299,7.0,12.0,68,0.00,,,0.00,LWC V2.10 B1813,2013-02-21 04:17:00,
2013-02-20 23:22:00,23.5,14.2,29.86,SW,218,5.0,11.0,67,0.00,,,0.00,LWC V2.10 B1813,2013-02-21 04:22:00,
2013-02-20 23:27:00,23.5,14.2,29.87,SW,215,6.0,14.0,67,0.00,,,0.00,LWC V2.10 B1813,2013-02-21 04:27:00,
2013-02-20 23:32:00,23.5,14.2,29.86,SW,228,6.0,13.0,67,0.00,,,0.00,LWC V2.10 B1813,2013-02-21 04:32:00,
2013-02-20 23:37:00,23.4,14.1,29.86,SW,219,4.0,10.0,67,0.00,,,0.00,LWC V2.10 B1813,2013-02-21 04:37:00,
2013-02-20 23:42:00,23.4,14.1,29.86,SW,227,6.0,14.0,67,0.00,,,0.00,LWC V2.10 B1813,2013-02-21 04:42:00,
2013-02-20 23:47:00,23.4,14.1,29.86,WNW,289,5.0,19.0,67,0.00,,,0.00,LWC V2.10 B1813,2013-02-21 04:47:00,
2013-02-20 23:52:00,23.3,14.0,29.86,SSW,198,1.0,6.0,67,0.00,,,0.00,LWC V2.10 B1813,2013-02-21 04:52:00,
2013-02-20 23:57:00,23.3,14.0,29.86,SW,236,9.0,9.0,67,0.00,,,0.00,LWC V2.10 B1813,2013-02-21 04:57:00,